Time;durP1;ratioP1;P1;durP2;ratioP2;P2;SDS_P1;SDS_P2;PMS_P1;PMS_P2;Temp;Humidity;BMP_temperature;BMP_pressure;BME280_temperature;BME280_humidity;BME280_pressure;Samples;Min_cycle;Max_cycle;Signal;HPM_P1;HPM_P2
2022/10/30 00:01:15;;;;;;;14.07;7.18;;;15.10;99.90;;;;;;6183122;28;20057;-81
2022/10/30 00:04:17;;;;;;;20.20;5.72;;;15.10;99.90;;;;;;6183363;28;20054;-82
2022/10/30 00:07:19;;;;;;;13.20;5.47;;;15.10;99.90;;;;;;6184706;28;20055;-81
2022/10/30 00:10:22;;;;;;;10.50;4.90;;;15.10;99.90;;;;;;6186356;28;20144;-82
2022/10/30 00:13:24;;;;;;;14.88;5.68;;;15.10;99.90;;;;;;6185455;28;20058;-81
2022/10/30 00:16:25;;;;;;;13.40;5.35;;;15.10;99.90;;;;;;6183089;28;20501;-81
2022/10/30 00:19:27;;;;;;;12.80;5.38;;;15.00;99.90;;;;;;6158995;29;20051;-82
2022/10/30 00:22:29;;;;;;;15.18;4.70;;;15.10;99.90;;;;;;6159422;28;20053;-81
2022/10/30 00:25:34;;;;;;;12.43;4.57;;;15.10;99.90;;;;;;6159354;28;20043;-80
2022/10/30 00:28:35;;;;;;;9.55;4.70;;;15.10;99.90;;;;;;6157194;28;20043;-81
2022/10/30 00:31:37;;;;;;;22.02;5.20;;;15.10;99.90;;;;;;6159546;28;20179;-81
2022/10/30 00:34:39;;;;;;;12.32;4.45;;;15.10;99.90;;;;;;6160270;28;20055;-81
2022/10/30 00:37:41;;;;;;;15.15;4.28;;;15.10;99.90;;;;;;6159117;28;20048;-81
2022/10/30 00:40:44;;;;;;;14.35;5.65;;;15.20;99.90;;;;;;6158723;28;20114;-81
2022/10/30 00:43:46;;;;;;;12.95;5.35;;;15.30;99.90;;;;;;6159748;28;20078;-81
2022/10/30 00:46:47;;;;;;;15.20;5.22;;;15.30;99.90;;;;;;6158318;28;20051;-82
2022/10/30 00:49:57;;;;;;;11.95;5.07;;;15.40;99.90;;;;;;6166586;28;20027;-81
2022/10/30 00:53:02;;;;;;;11.18;5.55;;;15.40;99.90;;;;;;6182909;28;20049;-81
2022/10/30 00:56:08;;;;;;;12.50;4.95;;;15.40;99.90;;;;;;6166692;28;20043;-82
2022/10/30 00:59:13;;;;;;;15.85;4.65;;;15.40;99.90;;;;;;6162219;28;20057;-82
2022/10/30 01:02:15;;;;;;;24.45;5.45;;;15.40;99.90;;;;;;6161476;28;20058;-82
2022/10/30 01:05:21;;;;;;;8.20;4.57;;;15.40;99.90;;;;;;6160610;28;20054;-81
2022/10/30 01:08:23;;;;;;;15.70;4.72;;;15.40;99.90;;;;;;6160325;28;20343;-82
2022/10/30 01:11:26;;;;;;;21.27;7.25;;;15.30;99.90;;;;;;6161173;29;20051;-82
2022/10/30 01:14:28;;;;;;;11.40;4.65;;;15.20;99.90;;;;;;6160594;28;20051;-81
2022/10/30 01:17:45;;;;;;;25.27;4.90;;;15.10;99.90;;;;;;6157733;28;20051;-82
2022/10/30 01:21:07;;;;;;;7.57;3.63;;;15.10;99.90;;;;;;6145760;28;20045;-82
2022/10/30 01:24:35;;;;;;;17.20;4.38;;;15.00;99.90;;;;;;6160225;28;20508;-81
2022/10/30 01:27:48;;;;;;;10.25;4.60;;;15.00;99.90;;;;;;6158468;28;20059;-81
2022/10/30 01:31:02;;;;;;;17.80;5.25;;;15.10;99.90;;;;;;6157788;29;20059;-81
2022/10/30 01:34:16;;;;;;;11.85;4.18;;;15.10;99.90;;;;;;6157881;28;20047;-81
2022/10/30 01:37:25;;;;;;;20.65;4.38;;;15.10;99.90;;;;;;6157179;28;20059;-80
2022/10/30 01:40:26;;;;;;;;;;;15.10;99.90;;;;;;6158119;28;20058;-80
2022/10/30 01:43:29;;;;;;;12.20;4.60;;;15.30;99.90;;;;;;6163219;28;19953;-80
2022/10/30 01:46:44;;;;;;;26.77;4.82;;;15.20;99.90;;;;;;6181177;28;20050;-81
2022/10/30 01:50:06;;;;;;;8.05;4.25;;;15.10;99.90;;;;;;6184478;23;20047;-84
2022/10/30 01:53:20;;;;;;;11.90;4.88;;;15.10;99.90;;;;;;6155127;29;20031;-84
2022/10/30 01:56:29;;;;;;;15.63;5.03;;;15.10;99.90;;;;;;6154677;28;20047;-84
2022/10/30 01:59:37;;;;;;;22.13;6.07;;;15.00;99.90;;;;;;6153639;28;20047;-84
2022/10/30 02:02:38;;;;;;;10.27;4.78;;;14.90;99.90;;;;;;6155407;29;20501;-84
2022/10/30 02:05:43;;;;;;;17.67;4.95;;;14.80;99.90;;;;;;6154496;28;20051;-84
2022/10/30 02:08:45;;;;;;;16.17;4.72;;;14.70;99.90;;;;;;6155476;28;20061;-84
2022/10/30 02:11:49;;;;;;;17.92;5.10;;;14.60;99.90;;;;;;6154823;28;20074;-84
2022/10/30 02:14:57;;;;;;;13.25;5.07;;;14.50;99.90;;;;;;6155095;28;20063;-84
2022/10/30 02:18:00;;;;;;;14.18;4.30;;;14.40;99.90;;;;;;6154737;28;20057;-84
2022/10/30 02:21:03;;;;;;;16.40;4.45;;;14.30;99.90;;;;;;6152153;28;20058;-84
2022/10/30 02:24:05;;;;;;;16.40;4.45;;;14.20;99.90;;;;;;6154354;28;20429;-84
2022/10/30 02:27:07;;;;;;;12.93;4.45;;;14.20;99.90;;;;;;6155280;28;20055;-84
2022/10/30 02:30:09;;;;;;;11.02;4.60;;;14.20;99.90;;;;;;6154524;28;20047;-84
2022/10/30 02:33:11;;;;;;;13.55;4.40;;;14.10;99.90;;;;;;6154327;28;20132;-84
2022/10/30 02:36:14;;;;;;;13.52;4.63;;;14.10;99.90;;;;;;6154333;28;20043;-84
2022/10/30 02:39:16;;;;;;;20.80;5.43;;;14.00;99.90;;;;;;6154736;28;20055;-84
2022/10/30 02:42:18;;;;;;;12.63;3.42;;;14.00;99.90;;;;;;6153872;28;20051;-83
2022/10/30 02:45:21;;;;;;;17.55;4.85;;;13.90;99.90;;;;;;6154581;28;20050;-84
2022/10/30 02:48:22;;;;;;;15.25;4.68;;;13.80;99.90;;;;;;6154003;28;20039;-84
2022/10/30 02:51:25;;;;;;;15.23;4.30;;;13.80;99.90;;;;;;6153937;28;20520;-84
2022/10/30 02:54:27;;;;;;;9.70;3.80;;;13.70;99.90;;;;;;6154288;28;20051;-84
2022/10/30 02:57:29;;;;;;;13.38;4.72;;;13.60;99.90;;;;;;6153311;28;20059;-84
2022/10/30 03:00:31;;;;;;;15.52;4.20;;;13.60;99.90;;;;;;6154388;28;20047;-84
2022/10/30 03:03:33;;;;;;;11.15;4.97;;;13.50;99.90;;;;;;6154744;28;20055;-84
2022/10/30 03:06:36;;;;;;;14.05;4.30;;;13.50;99.90;;;;;;6177880;28;20054;-84
2022/10/30 03:09:37;;;;;;;6.60;3.38;;;13.40;99.90;;;;;;6181249;28;20054;-84
2022/10/30 03:12:39;;;;;;;10.32;3.55;;;13.40;99.90;;;;;;6182288;28;20051;-84
2022/10/30 03:15:41;;;;;;;16.58;4.72;;;13.30;99.90;;;;;;6182828;28;20054;-84
2022/10/30 03:18:43;;;;;;;11.60;5.43;;;13.30;99.90;;;;;;6182776;28;20043;-84
2022/10/30 03:21:46;;;;;;;11.77;4.20;;;13.30;99.90;;;;;;6181757;28;20054;-84
2022/10/30 03:24:48;;;;;;;13.93;4.85;;;13.20;99.90;;;;;;6183566;28;20043;-83
2022/10/30 03:27:50;;;;;;;12.60;3.13;;;13.20;99.90;;;;;;6182369;28;20062;-84
2022/10/30 03:30:57;;;;;;;18.58;4.35;;;13.10;99.90;;;;;;6183889;28;20046;-83
2022/10/30 03:33:59;;;;;;;11.85;4.00;;;13.10;99.90;;;;;;6186806;28;20042;-83
2022/10/30 03:37:02;;;;;;;12.43;3.28;;;13.10;99.90;;;;;;6183596;28;20046;-84
2022/10/30 03:40:05;;;;;;;14.25;3.88;;;13.00;99.90;;;;;;6182426;28;20053;-83
2022/10/30 03:43:07;;;;;;;9.27;3.30;;;13.00;99.90;;;;;;6185009;28;20058;-84
2022/10/30 03:46:09;;;;;;;9.75;3.28;;;13.00;99.90;;;;;;6185040;28;20043;-84
2022/10/30 03:49:11;;;;;;;11.68;4.68;;;13.00;99.90;;;;;;6182648;28;20050;-84
2022/10/30 03:52:14;;;;;;;14.50;3.72;;;13.00;99.90;;;;;;6183170;28;20042;-83
2022/10/30 03:55:16;;;;;;;12.43;3.70;;;12.90;99.90;;;;;;6182727;28;20066;-83
2022/10/30 03:58:17;;;;;;;7.70;2.80;;;13.00;99.90;;;;;;6181245;28;20051;-83
2022/10/30 04:01:19;;;;;;;10.80;5.35;;;12.90;99.90;;;;;;6181530;28;20046;-83
2022/10/30 04:04:21;;;;;;;9.98;3.03;;;12.90;99.90;;;;;;6181717;28;20043;-83
2022/10/30 04:07:24;;;;;;;13.05;3.30;;;12.80;99.90;;;;;;6181123;28;20054;-83
2022/10/30 04:10:26;;;;;;;12.70;3.75;;;12.70;99.90;;;;;;6180554;28;20047;-83
2022/10/30 04:13:27;;;;;;;8.50;3.85;;;12.70;99.90;;;;;;6181017;28;20397;-84
2022/10/30 04:16:29;;;;;;;14.30;3.80;;;12.70;99.90;;;;;;6180868;28;20047;-84
2022/10/30 04:19:31;;;;;;;17.95;4.10;;;12.60;99.90;;;;;;6179631;28;20504;-84
2022/10/30 04:22:34;;;;;;;10.88;2.90;;;12.60;99.90;;;;;;6178713;28;20047;-83
2022/10/30 04:25:36;;;;;;;8.80;3.05;;;12.60;99.90;;;;;;6180349;28;20054;-83
2022/10/30 04:28:38;;;;;;;17.02;4.07;;;12.50;99.90;;;;;;6179437;28;20043;-83
2022/10/30 04:31:39;;;;;;;11.95;3.85;;;12.40;99.90;;;;;;6180373;28;20063;-83
2022/10/30 04:34:41;;;;;;;16.63;3.67;;;12.40;99.90;;;;;;6181114;28;20050;-83
2022/10/30 04:37:52;;;;;;;7.50;2.60;;;12.30;99.90;;;;;;6179862;28;20428;-83
2022/10/30 04:40:53;;;;;;;10.57;3.47;;;12.20;99.90;;;;;;6180041;28;20047;-83
2022/10/30 04:43:55;;;;;;;11.52;3.88;;;12.20;99.90;;;;;;6179806;28;20050;-83
2022/10/30 04:46:57;;;;;;;12.40;2.95;;;12.20;99.90;;;;;;6181006;28;20055;-83
2022/10/30 04:49:58;;;;;;;14.82;3.83;;;12.20;99.90;;;;;;6180198;28;20049;-84
2022/10/30 04:53:03;;;;;;;21.13;3.47;;;12.20;99.90;;;;;;6179661;28;20054;-83
2022/10/30 04:56:05;;;;;;;6.25;2.95;;;12.10;99.90;;;;;;6180093;28;20038;-83
2022/10/30 04:59:07;;;;;;;11.43;3.22;;;12.10;99.90;;;;;;6180475;28;20047;-83
2022/10/30 05:02:10;;;;;;;9.05;2.92;;;12.10;99.90;;;;;;6180663;28;20047;-83
2022/10/30 05:05:11;;;;;;;10.43;3.10;;;12.00;99.90;;;;;;6179380;28;20054;-83
2022/10/30 05:08:14;;;;;;;14.60;4.43;;;12.00;99.90;;;;;;6180565;28;20050;-83
2022/10/30 05:11:16;;;;;;;6.32;3.72;;;11.90;99.90;;;;;;6181340;28;20053;-83
2022/10/30 05:14:18;;;;;;;6.68;3.95;;;11.90;99.90;;;;;;6179551;28;20047;-83
2022/10/30 05:17:20;;;;;;;9.88;3.33;;;11.90;99.90;;;;;;6178745;28;20508;-83
2022/10/30 05:20:22;;;;;;;17.63;4.70;;;11.80;99.90;;;;;;6178735;28;20046;-83
2022/10/30 05:23:25;;;;;;;3.92;2.15;;;11.70;99.90;;;;;;6180027;28;20074;-83
2022/10/30 05:26:27;;;;;;;15.00;3.55;;;11.70;99.90;;;;;;6180956;28;20046;-83
2022/10/30 05:29:28;;;;;;;11.57;3.90;;;11.70;99.90;;;;;;6179437;28;20065;-84
2022/10/30 05:32:30;;;;;;;11.40;3.42;;;11.60;99.90;;;;;;6179460;28;20042;-84
2022/10/30 05:35:33;;;;;;;8.77;3.20;;;11.60;99.90;;;;;;6180986;28;20051;-84
2022/10/30 05:38:36;;;;;;;22.48;6.55;;;11.70;99.90;;;;;;6179781;28;20397;-83
2022/10/30 05:41:38;;;;;;;11.63;4.38;;;11.60;99.90;;;;;;6180422;28;20054;-84
2022/10/30 05:44:39;;;;;;;13.85;4.65;;;11.60;99.90;;;;;;6181140;28;20058;-83
2022/10/30 05:47:41;;;;;;;14.55;3.67;;;11.60;99.90;;;;;;6179963;28;20054;-83
2022/10/30 05:50:43;;;;;;;22.75;5.10;;;11.60;99.90;;;;;;6180769;28;20050;-83
2022/10/30 05:53:47;;;;;;;16.30;4.13;;;11.50;99.90;;;;;;6180381;28;20054;-83
2022/10/30 05:56:49;;;;;;;9.65;4.78;;;11.50;99.90;;;;;;6180568;28;20050;-82
2022/10/30 05:59:51;;;;;;;15.45;3.88;;;11.50;99.90;;;;;;6180540;28;20633;-83
2022/10/30 06:02:52;;;;;;;14.77;3.80;;;11.40;99.90;;;;;;6181573;28;20058;-83
2022/10/30 06:05:54;;;;;;;15.18;3.83;;;11.40;99.90;;;;;;6180227;28;20061;-83
2022/10/30 06:08:57;;;;;;;9.85;3.53;;;11.40;99.90;;;;;;6180093;28;20054;-83
2022/10/30 06:11:59;;;;;;;16.08;4.30;;;11.30;99.90;;;;;;6179754;28;20050;-83
2022/10/30 06:15:00;;;;;;;10.10;3.20;;;11.30;99.90;;;;;;6181201;28;20057;-83
2022/10/30 06:18:02;;;;;;;13.00;2.92;;;11.30;99.90;;;;;;6179238;28;20046;-82
2022/10/30 06:21:04;;;;;;;9.07;3.00;;;11.30;99.90;;;;;;6180050;28;20516;-83
2022/10/30 06:24:08;;;;;;;11.50;3.70;;;11.40;99.90;;;;;;6179127;28;20063;-82
2022/10/30 06:27:09;;;;;;;9.23;2.88;;;11.40;99.90;;;;;;6180829;28;20058;-83
2022/10/30 06:30:12;;;;;;;12.65;3.13;;;11.40;99.90;;;;;;6180103;28;20054;-83
2022/10/30 06:33:13;;;;;;;7.80;3.20;;;11.40;99.90;;;;;;6179632;28;20524;-83
2022/10/30 06:36:16;;;;;;;22.27;4.35;;;11.40;99.90;;;;;;6180305;28;20046;-83
2022/10/30 06:39:19;;;;;;;5.75;3.00;;;11.50;99.90;;;;;;6180477;28;20524;-83
2022/10/30 06:42:20;;;;;;;11.93;3.58;;;11.60;99.90;;;;;;6179853;28;20043;-83
2022/10/30 06:45:23;;;;;;;11.02;3.97;;;11.60;99.90;;;;;;6179804;28;20043;-83
2022/10/30 06:48:25;;;;;;;11.10;3.33;;;11.70;99.90;;;;;;6179358;28;20054;-83
2022/10/30 06:51:27;;;;;;;8.30;3.00;;;11.80;99.90;;;;;;6180547;28;20508;-83
2022/10/30 06:54:30;;;;;;;7.03;3.38;;;11.90;99.90;;;;;;6179592;28;20053;-83
2022/10/30 06:57:32;;;;;;;12.18;5.20;;;12.00;99.90;;;;;;6181454;28;20430;-83
2022/10/30 07:00:33;;;;;;;13.45;3.22;;;12.20;99.90;;;;;;6178651;28;20065;-83
2022/10/30 07:03:35;;;;;;;11.70;2.70;;;12.30;99.90;;;;;;6178933;28;20051;-83
2022/10/30 07:06:37;;;;;;;13.38;2.75;;;12.50;99.90;;;;;;6181105;28;20416;-82
2022/10/30 07:09:40;;;;;;;10.77;3.00;;;12.70;99.90;;;;;;6179072;28;20070;-82
2022/10/30 07:12:41;;;;;;;15.75;2.75;;;12.80;99.90;;;;;;6178446;28;20054;-82
2022/10/30 07:15:44;;;;;;;16.60;4.80;;;13.00;99.90;;;;;;6180422;28;20054;-83
2022/10/30 07:18:45;;;;;;;22.35;3.47;;;13.20;99.90;;;;;;6180433;28;20061;-85
2022/10/30 07:21:47;;;;;;;7.97;3.10;;;13.40;99.90;;;;;;6152308;28;20054;-82
2022/10/30 07:24:50;;;;;;;6.80;2.22;;;13.50;99.90;;;;;;6193812;28;20047;-81
2022/10/30 07:27:54;;;;;;;7.38;2.00;;;13.70;99.90;;;;;;6194370;28;20058;-85
2022/10/30 07:30:57;;;;;;;7.30;2.58;;;13.80;99.90;;;;;;6186452;28;20057;-82
2022/10/30 07:33:59;;;;;;;20.25;5.68;;;13.90;99.90;;;;;;6181150;28;20523;-83
2022/10/30 07:37:00;;;;;;;6.97;2.45;;;14.10;99.90;;;;;;6182266;28;20894;-83
2022/10/30 07:40:04;;;;;;;5.70;1.83;;;14.30;99.90;;;;;;6180979;28;20054;-83
2022/10/30 07:43:09;;;;;;;8.52;2.65;;;14.60;99.90;;;;;;6180702;28;20065;-83
2022/10/30 07:46:11;;;;;;;7.20;2.08;;;14.90;99.90;;;;;;6191151;28;20576;-83
2022/10/30 07:49:12;;;;;;;5.63;2.42;;;15.30;99.90;;;;;;6205402;28;20053;-82
2022/10/30 07:52:14;;;;;;;6.75;3.72;;;15.50;99.90;;;;;;6208619;28;20042;-82
2022/10/30 07:55:17;;;;;;;12.68;4.53;;;15.70;99.90;;;;;;6220328;28;20052;-84
2022/10/30 07:58:19;;;;;;;7.55;3.55;;;16.00;99.90;;;;;;6213234;28;20046;-82
2022/10/30 08:01:21;;;;;;;4.50;1.92;;;16.40;99.90;;;;;;6211448;28;20042;-84
2022/10/30 08:04:22;;;;;;;11.10;2.00;;;16.90;99.90;;;;;;6212290;28;20046;-83
2022/10/30 08:07:24;;;;;;;10.23;2.65;;;17.30;99.90;;;;;;6209816;28;20484;-83
2022/10/30 08:10:27;;;;;;;15.75;3.20;;;17.80;99.90;;;;;;6210035;28;20057;-83
2022/10/30 08:13:29;;;;;;;8.70;2.33;;;18.40;99.90;;;;;;6209766;28;20046;-84
2022/10/30 08:16:30;;;;;;;6.30;2.22;;;18.90;99.90;;;;;;6208808;28;20515;-83
2022/10/30 08:19:32;;;;;;;13.07;2.95;;;19.30;99.90;;;;;;6210004;28;20051;-83
2022/10/30 08:22:34;;;;;;;6.72;1.80;;;19.70;99.90;;;;;;6209837;28;20046;-84
2022/10/30 08:25:37;;;;;;;11.13;2.13;;;20.10;99.90;;;;;;6206719;28;20046;-83
2022/10/30 08:28:38;;;;;;;13.38;2.53;;;20.50;99.90;;;;;;6181708;28;20046;-82
2022/10/30 08:31:40;;;;;;;9.52;1.98;;;20.90;99.50;;;;;;6184451;28;20047;-83
2022/10/30 08:34:42;;;;;;;16.85;4.38;;;21.20;98.90;;;;;;6185815;28;20125;-81
2022/10/30 08:37:44;;;;;;;18.27;6.20;;;21.60;98.50;;;;;;6184251;28;20054;-83
2022/10/30 08:40:47;;;;;;;13.98;3.92;;;21.90;98.20;;;;;;6184008;28;20047;-83
2022/10/30 08:43:48;;;;;;;16.13;2.80;;;22.20;97.40;;;;;;6184093;28;20055;-83
2022/10/30 08:46:50;;;;;;;8.85;2.30;;;22.50;96.70;;;;;;6203345;28;20047;-83
2022/10/30 08:49:52;;;;;;;7.47;2.83;;;22.70;96.20;;;;;;6207858;28;20057;-83
2022/10/30 08:52:53;;;;;;;11.43;2.55;;;23.00;95.70;;;;;;6208334;28;20057;-83
2022/10/30 08:55:56;;;;;;;10.13;3.38;;;23.40;95.10;;;;;;6201912;28;20512;-83
2022/10/30 08:58:58;;;;;;;10.35;3.25;;;23.70;94.10;;;;;;6203993;28;20061;-83
2022/10/30 09:02:00;;;;;;;10.75;2.03;;;23.90;93.30;;;;;;6208166;28;20060;-85
2022/10/30 09:05:02;;;;;;;11.32;2.50;;;24.10;92.50;;;;;;6206320;28;20058;-83
2022/10/30 09:08:03;;;;;;;11.15;2.38;;;24.30;91.80;;;;;;6204879;28;20042;-83
2022/10/30 09:11:06;;;;;;;12.43;1.88;;;24.30;91.40;;;;;;6196041;28;20053;-83
2022/10/30 09:14:08;;;;;;;5.15;1.98;;;24.50;90.90;;;;;;6197155;28;20054;-83
2022/10/30 09:17:10;;;;;;;14.75;2.92;;;24.70;90.30;;;;;;6206282;28;20046;-83
2022/10/30 09:20:12;;;;;;;13.07;1.95;;;25.00;89.20;;;;;;6205207;28;20049;-83
2022/10/30 09:23:13;;;;;;;4.82;2.10;;;25.30;87.60;;;;;;6207093;28;20050;-84
2022/10/30 09:26:16;;;;;;;11.95;2.65;;;25.60;86.20;;;;;;6201950;28;20058;-83
2022/10/30 09:29:18;;;;;;;10.18;1.98;;;26.00;84.40;;;;;;6181555;28;20131;-82
2022/10/30 09:32:20;;;;;;;11.45;2.33;;;26.20;82.60;;;;;;6180642;28;20558;-82
2022/10/30 09:35:21;;;;;;;10.60;2.03;;;26.30;81.50;;;;;;6160116;29;20054;-84
2022/10/30 09:38:23;;;;;;;8.32;1.60;;;26.10;80.80;;;;;;6159051;28;20139;-84
2022/10/30 09:41:44;;;;;;;9.50;2.10;;;26.10;79.90;;;;;;6160446;28;20047;-84
2022/10/30 09:44:58;;;;;;;9.65;2.42;;;26.30;78.60;;;;;;6158846;28;20047;-84
2022/10/30 09:48:29;;;;;;;7.05;1.42;;;26.70;77.60;;;;;;6158096;28;20043;-83
2022/10/30 09:52:04;;;;;;;13.70;2.35;;;26.90;76.30;;;;;;6158900;29;20047;-84
2022/10/30 09:55:23;;;;;;;5.45;1.60;;;27.20;75.00;;;;;;6169363;28;20057;-84
2022/10/30 09:58:35;;;;;;;5.97;2.03;;;27.20;74.30;;;;;;6198960;28;20046;-84
2022/10/30 10:01:47;;;;;;;6.00;2.92;;;27.40;72.50;;;;;;6208037;28;20404;-84
2022/10/30 10:04:52;;;;;;;8.07;1.95;;;27.40;71.60;;;;;;6208321;28;20046;-84
2022/10/30 10:07:59;;;;;;;12.57;2.22;;;27.50;71.40;;;;;;6207175;28;20058;-84
2022/10/30 10:11:06;;;;;;;13.82;1.92;;;27.70;70.20;;;;;;6206698;28;20054;-84
2022/10/30 10:14:14;;;;;;;13.15;2.38;;;28.00;69.10;;;;;;6210773;28;20057;-84
2022/10/30 10:17:25;;;;;;;16.10;2.38;;;28.20;68.30;;;;;;6207085;28;20061;-86
2022/10/30 10:20:32;;;;;;;6.40;1.70;;;28.30;67.60;;;;;;6208874;28;20046;-84
2022/10/30 10:23:41;;;;;;;12.30;3.88;;;28.50;67.20;;;;;;6209378;28;20051;-84
2022/10/30 10:26:48;;;;;;;6.63;1.88;;;28.70;66.50;;;;;;6200087;28;20046;-84
2022/10/30 10:30:00;;;;;;;4.75;1.38;;;29.10;65.90;;;;;;6188759;28;20050;-84
2022/10/30 10:33:25;;;;;;;8.95;2.45;;;29.30;65.10;;;;;;6181635;28;20054;-85
2022/10/30 10:36:35;;;;;;;8.05;1.67;;;29.50;64.60;;;;;;6185367;28;20428;-84
2022/10/30 10:39:53;;;;;;;7.15;2.15;;;29.80;63.80;;;;;;6186663;28;20050;-85
2022/10/30 10:43:10;;;;;;;9.88;2.20;;;30.00;63.40;;;;;;6183078;28;20046;-84
2022/10/30 10:46:32;;;;;;;8.15;2.00;;;30.20;62.30;;;;;;6182691;28;20046;-84
2022/10/30 10:49:53;;;;;;;7.72;1.50;;;30.40;62.00;;;;;;6181311;28;20046;-83
2022/10/30 10:53:01;;;;;;;9.38;2.10;;;30.70;61.20;;;;;;6181054;28;20047;-85
2022/10/30 10:56:02;;;;;;;9.32;2.15;;;30.90;60.30;;;;;;6190469;28;20047;-84
2022/10/30 10:59:10;;;;;;;7.85;2.22;;;31.00;59.80;;;;;;6201503;28;20061;-84
2022/10/30 11:02:29;;;;;;;2.92;1.48;;;31.10;58.90;;;;;;6198512;28;20038;-84
2022/10/30 11:05:35;;;;;;;6.15;1.70;;;31.10;59.10;;;;;;6188152;28;20615;-85
2022/10/30 11:08:36;;;;;;;7.20;1.60;;;31.20;57.80;;;;;;6191314;28;20535;-84
2022/10/30 11:11:38;;;;;;;9.25;2.53;;;31.20;57.40;;;;;;6195521;28;20489;-84
2022/10/30 11:14:40;;;;;;;9.00;2.05;;;31.10;57.20;;;;;;6183093;28;20057;-85
2022/10/30 11:17:51;;;;;;;9.75;1.83;;;30.90;56.90;;;;;;6199968;28;20049;-85
2022/10/30 11:20:59;;;;;;;12.35;2.72;;;30.70;56.90;;;;;;6190367;28;20039;-85
2022/10/30 11:24:01;;;;;;;8.50;2.08;;;30.30;57.10;;;;;;6171563;28;20520;-84
2022/10/30 11:27:17;;;;;;;18.27;5.32;;;30.00;57.60;;;;;;6199124;28;20054;-84
2022/10/30 11:30:22;;;;;;;12.82;3.05;;;29.60;58.20;;;;;;6191639;28;20097;-84
2022/10/30 11:33:29;;;;;;;12.73;3.40;;;29.30;58.80;;;;;;6204426;28;20050;-84
2022/10/30 11:36:31;;;;;;;;;;;29.10;59.40;;;;;;6201111;28;20058;-84
2022/10/30 11:39:34;;;;;;;16.60;3.20;;;29.00;60.00;;;;;;6208201;28;20272;-84
2022/10/30 11:42:37;;;;;;;23.70;9.45;;;28.90;59.90;;;;;;6181117;28;20139;-84
2022/10/30 11:45:41;;;;;;;12.60;3.47;;;28.80;60.00;;;;;;6193479;28;20050;-84
2022/10/30 11:48:45;;;;;;;6.80;3.90;;;28.70;60.10;;;;;;6206800;28;20046;-84
2022/10/30 11:51:47;;;;;;;10.00;2.42;;;28.60;60.50;;;;;;6211492;28;20440;-84
2022/10/30 11:54:51;;;;;;;17.13;2.40;;;28.80;60.80;;;;;;6208317;28;20065;-84
2022/10/30 11:57:56;;;;;;;8.75;2.92;;;29.00;60.20;;;;;;6203093;28;20043;-84
2022/10/30 12:01:01;;;;;;;6.90;1.98;;;29.10;59.90;;;;;;6212537;28;20049;-84
2022/10/30 12:04:21;;;;;;;8.23;3.85;;;29.30;59.40;;;;;;6210680;28;20042;-85
2022/10/30 12:07:28;;;;;;;5.60;2.10;;;29.40;59.00;;;;;;6211516;28;20061;-84
2022/10/30 12:10:30;;;;;;;7.57;1.92;;;29.60;58.20;;;;;;6208788;28;20046;-85
2022/10/30 12:13:37;;;;;;;5.47;2.17;;;29.70;57.60;;;;;;6210145;28;20150;-84
2022/10/30 12:16:45;;;;;;;15.30;1.42;;;29.90;57.40;;;;;;6208567;28;20090;-84
2022/10/30 12:19:51;;;;;;;11.95;1.92;;;29.80;56.90;;;;;;6211316;28;20053;-84
2022/10/30 12:22:53;;;;;;;11.75;1.85;;;30.00;56.70;;;;;;6211835;28;20046;-84
2022/10/30 12:25:57;;;;;;;9.70;1.80;;;30.00;56.50;;;;;;6205163;28;20039;-85
2022/10/30 12:29:01;;;;;;;10.10;2.72;;;30.00;55.80;;;;;;6199943;28;20055;-85
2022/10/30 12:32:07;;;;;;;11.73;2.92;;;30.00;55.70;;;;;;6186672;28;20053;-85
2022/10/30 12:35:27;;;;;;;11.20;1.57;;;30.10;55.50;;;;;;6189187;28;20047;-84
2022/10/30 12:38:34;;;;;;;7.97;1.90;;;29.90;55.10;;;;;;6190443;28;20052;-85
2022/10/30 12:41:42;;;;;;;11.65;1.83;;;29.70;55.20;;;;;;6188089;28;20054;-84
2022/10/30 12:44:48;;;;;;;5.05;1.38;;;29.70;54.80;;;;;;6185764;28;20167;-85
2022/10/30 12:47:56;;;;;;;10.55;2.63;;;29.80;54.80;;;;;;6185787;28;20531;-85
2022/10/30 12:51:13;;;;;;;8.25;1.85;;;30.10;55.10;;;;;;6183219;28;20047;-85
2022/10/30 12:54:24;;;;;;;7.70;1.08;;;30.40;54.00;;;;;;6182589;28;20505;-84
2022/10/30 12:57:28;;;;;;;8.55;2.22;;;30.70;53.10;;;;;;6199204;28;20414;-84
2022/10/30 13:00:33;;;;;;;11.32;1.52;;;30.90;53.00;;;;;;6205985;28;20045;-84
2022/10/30 13:03:37;;;;;;;4.90;1.30;;;31.10;52.70;;;;;;6209554;28;20049;-84
2022/10/30 13:06:48;;;;;;;6.90;2.40;;;31.20;52.70;;;;;;6209798;28;20201;-85
2022/10/30 13:09:57;;;;;;;6.72;1.50;;;31.30;52.90;;;;;;6206350;28;20046;-85
2022/10/30 13:13:04;;;;;;;7.55;2.58;;;31.30;52.90;;;;;;6205001;28;20076;-85
2022/10/30 13:16:12;;;;;;;3.58;1.73;;;31.20;52.90;;;;;;6208762;28;20050;-85
2022/10/30 13:19:14;;;;;;;9.68;1.67;;;30.90;53.20;;;;;;6185858;28;20050;-84
2022/10/30 13:22:23;;;;;;;6.93;1.33;;;30.90;53.50;;;;;;6182219;28;20047;-85
2022/10/30 13:25:31;;;;;;;8.68;2.38;;;30.70;53.60;;;;;;6191012;28;20039;-84
2022/10/30 13:28:37;;;;;;;7.80;2.03;;;30.50;53.90;;;;;;6192023;28;20038;-84
2022/10/30 13:31:51;;;;;;;4.10;2.03;;;30.40;54.30;;;;;;6187325;28;20051;-84
2022/10/30 13:34:58;;;;;;;6.60;1.40;;;30.20;54.30;;;;;;6188833;28;20050;-85
2022/10/30 13:38:14;;;;;;;6.85;1.38;;;30.00;55.00;;;;;;6183675;28;20074;-84
2022/10/30 13:41:24;;;;;;;12.13;2.10;;;29.70;55.00;;;;;;6183377;28;20039;-84
2022/10/30 13:44:34;;;;;;;10.90;2.03;;;29.50;55.10;;;;;;6183013;28;20053;-84
2022/10/30 13:47:46;;;;;;;17.00;4.65;;;29.20;56.10;;;;;;6182947;28;20493;-84
2022/10/30 13:51:11;;;;;;;10.50;1.55;;;29.00;56.30;;;;;;6178392;28;20137;-84
2022/10/30 13:54:21;;;;;;;8.13;1.90;;;28.80;56.90;;;;;;6177138;28;20050;-84
2022/10/30 13:57:29;;;;;;;5.85;2.72;;;28.70;57.60;;;;;;6193846;28;20066;-85
2022/10/30 14:00:50;;;;;;;11.60;2.95;;;28.60;58.50;;;;;;6204154;28;20038;-84
2022/10/30 14:03:59;;;;;;;17.40;2.00;;;28.50;59.20;;;;;;6202683;28;20452;-84
2022/10/30 14:07:16;;;;;;;11.00;4.10;;;28.40;59.70;;;;;;6202771;28;20051;-85
2022/10/30 14:10:31;;;;;;;11.40;2.93;;;28.40;60.40;;;;;;6199444;28;20042;-86
2022/10/30 14:13:45;;;;;;;7.93;2.80;;;28.50;60.10;;;;;;6200744;28;20057;-85
2022/10/30 14:17:08;;;;;;;14.68;3.60;;;28.70;60.00;;;;;;6199412;28;20153;-85
2022/10/30 14:20:26;;;;;;;12.07;5.00;;;28.70;59.70;;;;;;6198384;28;20416;-85
2022/10/30 14:23:32;;;;;;;13.73;2.20;;;28.80;59.40;;;;;;6199098;28;20058;-85
2022/10/30 14:26:35;;;;;;;17.05;3.65;;;28.70;59.30;;;;;;6187980;28;20448;-85
2022/10/30 14:29:48;;;;;;;9.35;3.38;;;28.60;60.30;;;;;;6199104;28;20054;-85
2022/10/30 14:32:51;;;;;;;15.38;4.50;;;28.50;61.20;;;;;;6167718;28;20534;-85
2022/10/30 14:36:14;;;;;;;8.68;2.30;;;28.40;61.80;;;;;;6150381;28;20062;-85
2022/10/30 14:39:28;;;;;;;6.65;2.30;;;28.30;62.00;;;;;;6151492;28;20047;-85
2022/10/30 14:42:40;;;;;;;6.97;3.30;;;28.30;62.20;;;;;;6150951;28;20043;-85
2022/10/30 14:45:48;;;;;;;18.25;2.33;;;28.20;62.50;;;;;;6150433;28;20047;-85
2022/10/30 14:49:01;;;;;;;11.50;2.53;;;28.20;62.90;;;;;;6150132;28;20047;-85
2022/10/30 14:52:14;;;;;;;14.48;2.30;;;28.10;63.10;;;;;;6150649;28;20525;-86
2022/10/30 14:55:25;;;;;;;6.97;2.25;;;28.00;63.60;;;;;;6157500;28;20051;-85
2022/10/30 14:58:31;;;;;;;8.38;1.90;;;27.80;64.20;;;;;;6166083;28;20047;-85
2022/10/30 15:01:40;;;;;;;12.20;2.05;;;27.60;64.80;;;;;;6174008;28;20642;-85
2022/10/30 15:04:59;;;;;;;13.32;3.20;;;27.30;65.50;;;;;;6173859;28;20051;-85
2022/10/30 15:08:12;;;;;;;8.95;2.50;;;27.20;66.10;;;;;;6173665;28;20064;-85
2022/10/30 15:11:37;;;;;;;10.13;2.58;;;27.10;66.50;;;;;;6167203;28;20050;-85
2022/10/30 15:14:44;;;;;;;16.75;2.17;;;26.90;67.00;;;;;;6175000;28;20054;-85
2022/10/30 15:17:48;;;;;;;12.10;2.57;;;26.70;67.50;;;;;;6175345;28;20058;-85
2022/10/30 15:20:52;;;;;;;9.20;2.33;;;26.50;68.20;;;;;;6174413;28;20042;-84
2022/10/30 15:23:56;;;;;;;8.85;2.25;;;26.20;68.70;;;;;;6175404;28;20047;-85
2022/10/30 15:27:00;;;;;;;20.10;3.10;;;26.10;69.30;;;;;;6187243;28;20049;-84
2022/10/30 15:30:04;;;;;;;6.78;2.20;;;25.80;69.80;;;;;;6198978;28;20050;-85
2022/10/30 15:33:20;;;;;;;12.90;2.55;;;25.50;70.30;;;;;;6183019;28;20053;-85
2022/10/30 15:36:24;;;;;;;8.25;2.55;;;25.20;71.20;;;;;;6173617;28;20046;-85
2022/10/30 15:39:26;;;;;;;19.52;3.90;;;24.80;71.90;;;;;;6174177;28;20054;-85
2022/10/30 15:42:28;;;;;;;12.02;2.53;;;24.50;72.60;;;;;;6173364;28;20050;-85
2022/10/30 15:45:35;;;;;;;10.88;2.50;;;24.10;73.60;;;;;;6173862;28;20408;-85
2022/10/30 15:48:40;;;;;;;11.68;2.78;;;23.70;74.70;;;;;;6173697;28;20050;-85
2022/10/30 15:51:45;;;;;;;5.20;1.90;;;23.30;75.60;;;;;;6175115;28;20055;-85
2022/10/30 15:54:52;;;;;;;7.20;2.90;;;22.90;76.50;;;;;;6180984;28;20162;-84
2022/10/30 15:57:57;;;;;;;6.72;2.00;;;22.50;77.60;;;;;;6192370;28;20053;-84